createdAt,value
2022-08-16T00:00:47.993Z,17.34
2022-08-16T00:03:21.688Z,17.31
2022-08-16T00:05:57.609Z,17.40
2022-08-16T00:08:35.698Z,17.34
2022-08-16T00:11:07.509Z,17.24
2022-08-16T00:13:41.877Z,17.22
2022-08-16T00:17:00.988Z,17.07
2022-08-16T00:19:01.858Z,17.04
2022-08-16T00:21:31.692Z,17.01
2022-08-16T00:24:04.665Z,17.05
2022-08-16T00:26:37.472Z,17.04
2022-08-16T00:29:17.443Z,16.88
2022-08-16T00:31:59.760Z,16.95
2022-08-16T00:34:43.686Z,16.99
2022-08-16T00:37:16.973Z,17.04
2022-08-16T00:39:57.261Z,17.23
2022-08-16T00:42:32.250Z,17.27
2022-08-16T00:45:14.890Z,17.29
2022-08-16T00:47:49.318Z,17.17
2022-08-16T00:50:36.601Z,17.03
2022-08-16T00:53:06.472Z,17.08
2022-08-16T00:55:41.369Z,16.96
2022-08-16T00:58:13.080Z,16.89
2022-08-16T01:00:54.148Z,16.89
2022-08-16T01:03:30.250Z,16.94
2022-08-16T01:06:40.630Z,16.98
2022-08-16T01:09:00.056Z,16.92
2022-08-16T01:11:29.904Z,17.07
2022-08-16T01:14:08.015Z,17.07
2022-08-16T01:16:39.444Z,17.11
2022-08-16T01:19:19.680Z,16.88
2022-08-16T01:21:56.180Z,16.73
2022-08-16T01:24:55.480Z,16.64
2022-08-16T01:27:34.423Z,16.70
2022-08-16T01:30:19.561Z,16.75
2022-08-16T01:33:14.748Z,16.68
2022-08-16T01:35:57.517Z,16.69
2022-08-16T01:38:32.931Z,16.60
2022-08-16T01:41:09.612Z,16.61
2022-08-16T01:43:42.717Z,16.57
2022-08-16T01:46:37.424Z,16.38
2022-08-16T01:49:15.859Z,16.23
2022-08-16T01:51:55.157Z,16.18
2022-08-16T01:54:32.145Z,16.39
2022-08-16T01:57:11.478Z,16.39
2022-08-16T01:59:43.105Z,16.28
2022-08-16T02:02:26.781Z,16.08
2022-08-16T02:05:00.163Z,16.18
2022-08-16T02:07:30.586Z,16.20
2022-08-16T02:10:02.184Z,16.16
2022-08-16T02:12:51.450Z,16.09
2022-08-16T02:15:29.598Z,16.26
2022-08-16T02:18:01.806Z,16.24
2022-08-16T02:20:35.260Z,16.13
2022-08-16T02:23:06.015Z,16.28
2022-08-16T02:25:52.614Z,16.22
2022-08-16T02:28:27.435Z,16.29
2022-08-16T02:31:00.662Z,16.15
2022-08-16T02:33:44.460Z,16.29
2022-08-16T02:36:47.795Z,16.21
2022-08-16T02:39:22.941Z,16.15
2022-08-16T02:41:54.364Z,16.05
2022-08-16T02:44:28.587Z,15.99
2022-08-16T02:46:59.096Z,16.00
2022-08-16T02:49:58.380Z,16.03
2022-08-16T02:52:24.795Z,16.00
2022-08-16T02:55:00.944Z,15.90
2022-08-16T02:57:31.093Z,15.94
2022-08-16T03:00:34.046Z,15.99
2022-08-16T03:02:57.092Z,15.97
2022-08-16T03:05:30.832Z,15.98
2022-08-16T03:08:02.775Z,16.00
2022-08-16T03:10:39.201Z,15.98
2022-08-16T03:13:12.497Z,15.91
2022-08-16T03:15:45.464Z,15.95
2022-08-16T03:18:34.452Z,15.91
2022-08-16T03:21:10.135Z,15.84
2022-08-16T03:23:44.104Z,15.73
2022-08-16T03:26:14.728Z,15.62
2022-08-16T03:28:48.264Z,15.60
2022-08-16T03:31:20.281Z,15.62
2022-08-16T03:33:52.135Z,15.60
2022-08-16T03:36:31.235Z,15.61
2022-08-16T03:39:06.628Z,15.46
2022-08-16T03:41:50.101Z,15.40
2022-08-16T03:44:44.479Z,15.25
2022-08-16T03:47:19.281Z,15.26
2022-08-16T03:49:51.499Z,15.28
2022-08-16T03:52:23.307Z,15.30
2022-08-16T03:54:57.923Z,15.31
2022-08-16T03:57:31.958Z,15.34
2022-08-16T04:00:20.751Z,15.38
2022-08-16T04:03:09.208Z,15.37
2022-08-16T04:05:46.721Z,15.35
2022-08-16T04:08:23.356Z,15.37
2022-08-16T04:10:58.055Z,15.24
2022-08-16T04:14:00.265Z,15.16
2022-08-16T04:16:27.580Z,15.28
2022-08-16T04:19:12.140Z,15.28
2022-08-16T04:21:46.172Z,15.35
2022-08-16T04:24:19.713Z,15.31
2022-08-16T04:26:49.407Z,15.27
2022-08-16T04:29:23.623Z,15.27
2022-08-16T04:31:57.989Z,15.40
2022-08-16T04:34:37.229Z,15.50
2022-08-16T04:37:08.406Z,15.59
2022-08-16T04:39:46.993Z,15.64
2022-08-16T04:42:29.645Z,15.79
2022-08-16T04:45:02.024Z,16.05
2022-08-16T04:47:36.241Z,15.86
2022-08-16T04:50:16.256Z,15.96
2022-08-16T04:53:05.757Z,16.02
2022-08-16T04:55:38.871Z,16.34
2022-08-16T04:58:44.229Z,16.66
2022-08-16T05:01:01.241Z,17.12
2022-08-16T05:03:33.688Z,17.50
2022-08-16T05:06:07.089Z,17.81
2022-08-16T05:08:39.473Z,18.01
2022-08-16T05:11:25.142Z,18.14
2022-08-16T05:14:06.959Z,18.18
2022-08-16T05:16:39.563Z,18.26
2022-08-16T05:19:16.501Z,18.34
2022-08-16T05:22:08.214Z,18.33
2022-08-16T05:24:49.495Z,18.29
2022-08-16T05:27:26.341Z,18.28
2022-08-16T05:30:01.996Z,18.25
2022-08-16T05:32:47.794Z,18.28
2022-08-16T05:35:19.267Z,18.23
2022-08-16T05:38:32.492Z,18.24
2022-08-16T05:41:09.315Z,18.21
2022-08-16T05:43:46.798Z,18.28
2022-08-16T05:46:30.057Z,18.32
2022-08-16T05:49:22.270Z,18.39
2022-08-16T05:51:57.370Z,18.48
2022-08-16T05:54:29.924Z,18.66
2022-08-16T05:57:02.919Z,18.69
2022-08-16T05:59:33.855Z,18.69
2022-08-16T06:02:03.331Z,18.77
2022-08-16T06:04:37.884Z,18.89
2022-08-16T06:07:25.034Z,19.20
2022-08-16T06:10:31.976Z,19.52
2022-08-16T06:13:05.829Z,19.67
2022-08-16T06:15:36.605Z,19.85
2022-08-16T06:18:07.098Z,20.05
2022-08-16T06:20:36.898Z,20.28
2022-08-16T06:23:26.342Z,20.69
2022-08-16T06:26:03.005Z,20.87
2022-08-16T06:28:39.163Z,21.02
2022-08-16T06:31:15.652Z,21.17
2022-08-16T06:33:49.269Z,21.45
2022-08-16T06:36:24.127Z,21.67
2022-08-16T06:39:16.288Z,22.05
2022-08-16T06:42:08.716Z,22.37
2022-08-16T06:45:00.621Z,22.66
2022-08-16T06:47:53.633Z,22.97
2022-08-16T06:50:29.450Z,23.23
2022-08-16T06:53:08.569Z,23.40
2022-08-16T06:56:13.949Z,23.61
2022-08-16T06:59:03.084Z,23.94
2022-08-16T07:01:53.696Z,24.18
2022-08-16T07:04:32.445Z,24.41
2022-08-16T07:07:10.152Z,24.80
2022-08-16T07:09:41.660Z,25.14
2022-08-16T07:12:11.780Z,25.32
2022-08-16T07:14:49.147Z,25.31
2022-08-16T07:17:21.735Z,25.18
2022-08-16T07:20:30.275Z,25.11
2022-08-16T07:22:59.162Z,24.92
2022-08-16T07:25:52.189Z,25.05
2022-08-16T07:28:24.249Z,25.12
2022-08-16T07:31:00.059Z,25.31
2022-08-16T07:33:52.821Z,25.66
2022-08-16T07:36:30.796Z,25.75
2022-08-16T07:39:01.179Z,25.94
2022-08-16T07:41:36.973Z,26.41
2022-08-16T07:44:16.809Z,26.87
2022-08-16T07:46:55.462Z,26.50
2022-08-16T07:49:27.109Z,26.75
2022-08-16T07:52:03.127Z,27.02
2022-08-16T07:54:49.019Z,27.26
2022-08-16T07:57:24.139Z,27.32
2022-08-16T07:59:57.409Z,27.40
2022-08-16T08:02:28.765Z,27.60
2022-08-16T08:05:00.482Z,27.70
2022-08-16T08:07:33.008Z,27.70
2022-08-16T08:10:11.025Z,27.82
2022-08-16T08:12:41.971Z,28.28
2022-08-16T08:15:14.824Z,28.89
2022-08-16T08:17:56.664Z,29.54
2022-08-16T08:20:45.865Z,29.72
2022-08-16T08:23:30.200Z,29.84
2022-08-16T08:26:00.436Z,30.04
2022-08-16T08:28:32.377Z,29.90
2022-08-16T08:31:07.226Z,29.28
2022-08-16T08:33:46.735Z,29.06
2022-08-16T08:36:33.630Z,28.81
2022-08-16T08:39:15.420Z,28.60
2022-08-16T08:41:51.303Z,28.61
2022-08-16T08:44:29.043Z,28.67
2022-08-16T08:47:12.093Z,28.58
2022-08-16T08:49:46.323Z,28.60
2022-08-16T08:52:34.190Z,28.81
2022-08-16T08:55:11.477Z,28.76
2022-08-16T08:57:47.727Z,28.55
2022-08-16T09:00:30.270Z,28.40
2022-08-16T09:03:04.243Z,28.87
2022-08-16T09:05:38.271Z,29.10
2022-08-16T09:08:11.737Z,29.05
2022-08-16T09:10:58.858Z,29.12
2022-08-16T09:13:33.451Z,29.18
2022-08-16T09:16:04.120Z,29.31
2022-08-16T09:18:36.615Z,29.41
2022-08-16T09:21:09.909Z,29.75
2022-08-16T09:23:41.008Z,29.94
2022-08-16T09:26:46.334Z,29.72
2022-08-16T09:29:15.527Z,29.83
2022-08-16T09:31:53.520Z,30.19
2022-08-16T09:34:23.264Z,30.23
2022-08-16T09:36:57.981Z,30.21
2022-08-16T09:39:41.504Z,30.65
2022-08-16T09:42:14.417Z,30.92
2022-08-16T09:45:11.854Z,31.27
2022-08-16T09:47:57.170Z,30.49
2022-08-16T09:50:25.727Z,30.43
2022-08-16T09:52:56.448Z,30.55
2022-08-16T09:55:28.072Z,30.32
2022-08-16T09:58:00.955Z,30.16
2022-08-16T10:00:44.226Z,29.73
2022-08-16T10:03:14.759Z,29.26
2022-08-16T10:05:44.676Z,29.22
2022-08-16T10:08:26.502Z,29.08
2022-08-16T10:11:15.229Z,29.16
2022-08-16T10:13:53.311Z,29.45
2022-08-16T10:16:24.755Z,29.70
2022-08-16T10:19:01.512Z,30.09
2022-08-16T10:21:34.101Z,30.23
2022-08-16T10:24:05.822Z,30.41
2022-08-16T10:27:18.138Z,30.40
2022-08-16T10:29:24.979Z,30.25
2022-08-16T10:32:14.371Z,29.99
2022-08-16T10:34:51.466Z,29.88
2022-08-16T10:37:32.630Z,29.97
2022-08-16T10:40:28.703Z,30.03
2022-08-16T10:43:01.107Z,30.28
2022-08-16T10:45:37.061Z,30.35
2022-08-16T10:48:23.917Z,30.47
2022-08-16T10:50:59.307Z,30.97
2022-08-16T10:53:32.835Z,30.39
2022-08-16T10:56:52.240Z,30.35
2022-08-16T10:59:32.748Z,30.72
2022-08-16T11:07:43.289Z,32.73
2022-08-16T11:11:04.984Z,33.48
2022-08-16T11:16:01.202Z,31.77
2022-08-16T11:18:54.991Z,30.90
2022-08-16T11:21:29.341Z,30.63
2022-08-16T11:23:59.883Z,30.57
2022-08-16T11:26:29.865Z,31.81
2022-08-16T11:29:16.530Z,33.08
2022-08-16T11:31:54.024Z,33.55
2022-08-16T11:34:31.827Z,34.22
2022-08-16T11:37:27.290Z,34.68
2022-08-16T11:39:59.950Z,33.46
2022-08-16T11:42:33.217Z,31.88
2022-08-16T11:45:09.514Z,30.93
2022-08-16T11:47:38.906Z,30.80
2022-08-16T11:50:10.275Z,30.34
2022-08-16T11:52:46.736Z,29.44
2022-08-16T11:55:16.436Z,28.82
2022-08-16T11:57:45.799Z,28.66
2022-08-16T12:00:42.669Z,28.69
2022-08-16T12:03:09.435Z,28.54
2022-08-16T12:05:44.085Z,28.47
2022-08-16T12:08:15.778Z,28.30
2022-08-16T12:10:48.885Z,28.00
2022-08-16T12:13:18.624Z,28.17
2022-08-16T12:15:50.813Z,27.90
2022-08-16T12:18:22.236Z,27.84
2022-08-16T12:20:55.151Z,27.72
2022-08-16T12:23:25.323Z,27.39
2022-08-16T12:25:54.601Z,26.50
2022-08-16T12:28:37.054Z,26.28
2022-08-16T12:31:14.869Z,25.96
2022-08-16T12:33:45.967Z,25.88
2022-08-16T12:36:17.724Z,25.79
2022-08-16T12:38:48.399Z,25.70
2022-08-16T12:41:24.526Z,25.77
2022-08-16T12:43:57.231Z,25.85
2022-08-16T12:46:32.272Z,25.93
2022-08-16T12:49:01.589Z,26.01
2022-08-16T12:51:58.293Z,25.98
2022-08-16T12:54:24.561Z,26.02
2022-08-16T12:56:53.833Z,25.97
2022-08-16T12:59:24.935Z,25.99
2022-08-16T13:02:01.920Z,25.84
2022-08-16T13:04:34.229Z,25.97
2022-08-16T13:07:06.004Z,26.09
2022-08-16T13:09:47.868Z,26.32
2022-08-16T13:12:20.107Z,26.48
2022-08-16T13:14:52.435Z,26.63
2022-08-16T13:17:29.679Z,26.81
2022-08-16T13:20:07.775Z,26.88
2022-08-16T13:25:17.401Z,27.05
2022-08-16T13:28:03.054Z,27.17
2022-08-16T13:30:41.885Z,27.35
2022-08-16T13:33:18.290Z,27.50
2022-08-16T13:35:58.553Z,27.67
2022-08-16T13:38:37.769Z,27.86
2022-08-16T13:41:09.286Z,27.99
2022-08-16T13:43:43.705Z,28.13
2022-08-16T13:46:26.299Z,28.27
2022-08-16T13:48:57.528Z,28.33
2022-08-16T13:51:29.385Z,28.29
2022-08-16T13:54:04.629Z,28.22
2022-08-16T13:56:37.842Z,28.30
2022-08-16T13:59:20.903Z,28.47
2022-08-16T14:01:55.807Z,28.68
2022-08-16T14:04:31.406Z,28.76
2022-08-16T14:07:02.711Z,28.86
2022-08-16T14:09:36.385Z,29.05
2022-08-16T14:12:18.075Z,29.27
2022-08-16T14:14:48.519Z,29.46
2022-08-16T14:17:24.495Z,29.67
2022-08-16T14:19:59.960Z,29.82
2022-08-16T14:22:35.651Z,30.01
2022-08-16T14:25:12.544Z,30.07
2022-08-16T14:27:46.038Z,30.10
2022-08-16T14:30:20.692Z,30.24
2022-08-16T14:32:51.384Z,30.35
2022-08-16T14:35:36.641Z,30.48
2022-08-16T14:38:17.994Z,30.51
2022-08-16T14:40:53.291Z,30.44
2022-08-16T14:43:25.590Z,30.54
2022-08-16T14:45:59.774Z,31.35
2022-08-16T14:48:29.116Z,32.54
2022-08-16T14:50:59.719Z,36.87
2022-08-16T14:53:31.319Z,41.23
2022-08-16T14:56:02.075Z,44.21
2022-08-16T14:58:36.628Z,45.67
2022-08-16T15:01:10.149Z,46.68
2022-08-16T15:03:44.614Z,44.58
2022-08-16T15:06:16.415Z,41.72
2022-08-16T15:08:46.064Z,41.69
2022-08-16T15:11:16.099Z,41.54
2022-08-16T15:13:47.444Z,39.68
2022-08-16T15:16:16.909Z,37.97
2022-08-16T15:18:47.755Z,36.86
2022-08-16T15:21:19.311Z,36.24
2022-08-16T15:23:50.756Z,36.97
2022-08-16T15:26:34.550Z,38.26
2022-08-16T15:29:12.104Z,42.15
2022-08-16T15:31:44.418Z,44.59
2022-08-16T15:34:22.143Z,46.00
2022-08-16T15:36:57.060Z,47.27
2022-08-16T15:39:37.219Z,48.23
2022-08-16T15:42:11.019Z,48.66
2022-08-16T15:44:51.862Z,49.19
2022-08-16T15:47:26.330Z,48.93
2022-08-16T15:49:58.000Z,48.78
2022-08-16T15:52:32.177Z,49.02
2022-08-16T15:55:23.598Z,48.63
2022-08-16T15:57:53.699Z,49.21
2022-08-16T16:00:26.792Z,49.62
2022-08-16T16:03:09.780Z,49.35
2022-08-16T16:05:43.120Z,49.47
2022-08-16T16:08:24.039Z,49.60
2022-08-16T16:10:56.705Z,49.97
2022-08-16T16:13:26.067Z,50.16
2022-08-16T16:15:58.480Z,50.22
2022-08-16T16:18:30.114Z,50.03
2022-08-16T16:21:03.133Z,50.34
2022-08-16T16:23:44.487Z,50.22
2022-08-16T16:26:23.788Z,50.17
2022-08-16T16:29:08.623Z,50.39
2022-08-16T16:31:59.166Z,49.98
2022-08-16T16:34:32.203Z,49.62
2022-08-16T16:37:02.634Z,49.48
2022-08-16T16:39:33.588Z,49.06
2022-08-16T16:42:04.285Z,48.20
2022-08-16T16:44:36.291Z,47.88
2022-08-16T16:47:07.481Z,47.51
2022-08-16T16:49:41.756Z,47.22
2022-08-16T16:52:13.760Z,47.14
2022-08-16T16:55:06.406Z,47.04
2022-08-16T16:57:53.205Z,46.22
2022-08-16T17:00:26.054Z,45.86
2022-08-16T17:02:59.888Z,45.28
2022-08-16T17:05:32.523Z,44.80
2022-08-16T17:08:02.886Z,44.40
2022-08-16T17:10:46.679Z,43.80
2022-08-16T17:13:19.065Z,43.44
2022-08-16T17:15:52.391Z,42.09
2022-08-16T17:21:13.149Z,41.37
2022-08-16T17:23:58.838Z,41.02
2022-08-16T17:26:33.249Z,40.51
2022-08-16T17:29:11.394Z,39.77
2022-08-16T17:31:43.467Z,39.20
2022-08-16T17:34:28.737Z,38.48
2022-08-16T17:37:00.744Z,37.76
2022-08-16T17:39:26.514Z,41.63
2022-08-16T17:39:58.081Z,36.91
2022-08-16T17:42:28.000Z,35.84
2022-08-16T17:44:57.294Z,34.58
2022-08-16T17:47:26.604Z,32.83
2022-08-16T17:49:56.905Z,30.87
2022-08-16T17:52:28.763Z,29.48
2022-08-16T17:54:59.114Z,28.44
2022-08-16T17:57:29.926Z,27.62
2022-08-16T17:59:59.105Z,26.80
2022-08-16T18:02:43.943Z,26.02
2022-08-16T18:05:16.260Z,25.47
2022-08-16T18:07:46.354Z,25.00
2022-08-16T18:10:32.831Z,24.92
2022-08-16T18:13:05.446Z,24.71
2022-08-16T18:15:38.006Z,24.34
2022-08-16T18:18:08.456Z,24.00
2022-08-16T18:20:56.244Z,23.69
2022-08-16T18:23:28.084Z,23.56
2022-08-16T18:26:01.104Z,23.44
2022-08-16T18:28:34.870Z,23.32
2022-08-16T18:31:09.766Z,23.22
2022-08-16T18:33:43.113Z,23.07
2022-08-16T18:36:21.078Z,22.72
2022-08-16T18:40:23.996Z,22.51
2022-08-16T18:44:23.911Z,22.06
2022-08-16T18:46:14.912Z,21.99
2022-08-16T18:48:44.150Z,21.97
2022-08-16T18:51:20.325Z,21.97
2022-08-16T18:53:53.793Z,21.82
2022-08-16T18:56:23.073Z,21.45
2022-08-16T18:59:12.317Z,21.31
2022-08-16T19:01:44.481Z,21.31
2022-08-16T19:04:47.758Z,21.10
2022-08-16T19:07:15.114Z,21.01
2022-08-16T19:09:44.472Z,21.06
2022-08-16T19:12:16.074Z,20.97
2022-08-16T19:14:46.354Z,20.96
2022-08-16T19:17:18.375Z,20.78
2022-08-16T19:19:49.225Z,20.73
2022-08-16T19:22:51.989Z,20.68
2022-08-16T19:25:18.596Z,20.76
2022-08-16T19:27:48.432Z,20.65
2022-08-16T19:30:19.879Z,20.58
2022-08-16T19:32:51.571Z,20.68
2022-08-16T19:35:23.367Z,20.57
2022-08-16T19:37:53.907Z,20.49
2022-08-16T19:40:38.238Z,20.27
2022-08-16T19:43:10.200Z,19.99
2022-08-16T19:45:45.840Z,20.11
2022-08-16T19:48:17.374Z,20.19
2022-08-16T19:50:46.657Z,20.15
2022-08-16T19:53:19.635Z,19.96
2022-08-16T19:55:49.884Z,19.86
2022-08-16T19:58:21.798Z,19.96
2022-08-16T20:00:52.253Z,19.67
2022-08-16T20:03:27.483Z,19.52
2022-08-16T20:05:59.841Z,19.36
2022-08-16T20:08:29.506Z,19.42
2022-08-16T20:10:59.412Z,19.47
2022-08-16T20:13:29.337Z,19.54
2022-08-16T20:15:58.666Z,19.45
2022-08-16T20:18:30.671Z,19.39
2022-08-16T20:21:01.174Z,19.35
2022-08-16T20:23:30.602Z,19.37
2022-08-16T20:26:00.114Z,19.25
2022-08-16T20:28:51.670Z,19.00
2022-08-16T20:31:19.708Z,18.97
2022-08-16T20:33:52.004Z,19.06
2022-08-16T20:36:22.033Z,18.89
2022-08-16T20:38:52.696Z,18.87
2022-08-16T20:41:22.537Z,18.68
2022-08-16T20:43:51.805Z,18.70
2022-08-16T20:46:25.370Z,18.72
2022-08-16T20:48:56.165Z,18.62
2022-08-16T20:51:26.433Z,18.62
2022-08-16T20:53:56.065Z,18.46
2022-08-16T20:56:27.981Z,18.39
2022-08-16T20:58:57.464Z,18.59
2022-08-16T21:01:27.271Z,18.62
2022-08-16T21:04:16.748Z,18.65
2022-08-16T21:06:54.385Z,18.82
2022-08-16T21:09:26.035Z,18.69
2022-08-16T21:11:57.842Z,18.48
2022-08-16T21:14:27.087Z,18.38
2022-08-16T21:16:57.241Z,18.28
2022-08-16T21:19:28.269Z,18.26
2022-08-16T21:21:58.267Z,18.20
2022-08-16T21:24:27.502Z,18.06
2022-08-16T21:26:56.824Z,17.84
2022-08-16T21:29:31.661Z,17.92
2022-08-16T21:32:16.245Z,18.09
2022-08-16T21:34:47.143Z,18.02
2022-08-16T21:37:16.424Z,17.93
2022-08-16T21:39:46.080Z,17.66
2022-08-16T21:42:18.730Z,17.62
2022-08-16T21:44:47.933Z,17.54
2022-08-16T21:47:17.185Z,17.44
2022-08-16T21:49:47.756Z,17.41
2022-08-16T21:52:26.536Z,17.50
2022-08-16T21:54:57.667Z,17.51
2022-08-16T21:57:27.302Z,17.46
2022-08-16T22:00:12.798Z,17.32
2022-08-16T22:02:42.579Z,17.33
2022-08-16T22:05:13.964Z,17.19
2022-08-16T22:07:43.350Z,17.23
2022-08-16T22:11:07.898Z,17.25
2022-08-16T22:13:03.061Z,17.18
2022-08-16T22:15:32.579Z,17.19
2022-08-16T22:18:01.878Z,17.66
2022-08-16T22:20:32.672Z,17.55
2022-08-16T22:23:10.685Z,17.47
2022-08-16T22:25:43.204Z,17.21
2022-08-16T22:28:13.893Z,17.05
2022-08-16T22:30:44.088Z,17.03
2022-08-16T22:33:16.248Z,17.10
2022-08-16T22:35:50.292Z,17.10
2022-08-16T22:38:55.528Z,16.93
2022-08-16T22:41:09.402Z,16.86
2022-08-16T22:43:39.699Z,16.90
2022-08-16T22:46:09.292Z,16.85
2022-08-16T22:48:39.240Z,16.85
2022-08-16T22:51:11.971Z,16.80
2022-08-16T22:53:41.107Z,16.65
2022-08-16T22:56:10.459Z,16.58
2022-08-16T22:58:39.966Z,16.57
2022-08-16T23:01:12.371Z,16.58
2022-08-16T23:03:42.341Z,16.73
2022-08-16T23:06:14.029Z,16.73
2022-08-16T23:08:44.117Z,16.81
2022-08-16T23:11:22.696Z,16.74
2022-08-16T23:13:54.582Z,16.61
2022-08-16T23:16:33.022Z,16.61
2022-08-16T23:19:05.809Z,16.64
2022-08-16T23:21:38.936Z,16.56
2022-08-16T23:24:09.550Z,16.52
2022-08-16T23:26:45.663Z,16.52
2022-08-16T23:29:23.517Z,16.65
2022-08-16T23:31:58.778Z,16.61
2022-08-16T23:34:29.501Z,16.59
2022-08-16T23:37:00.319Z,16.65
2022-08-16T23:39:30.814Z,16.71
2022-08-16T23:42:00.782Z,16.83
2022-08-16T23:44:57.362Z,16.91
2022-08-16T23:47:19.039Z,16.92
2022-08-16T23:49:59.885Z,16.78
2022-08-16T23:52:54.638Z,16.66
2022-08-16T23:55:22.412Z,16.54
2022-08-16T23:57:52.360Z,16.43
